Time;durP1;ratioP1;P1;durP2;ratioP2;P2;SDS_P1;SDS_P2;PMS_P1;PMS_P2;Temp;Humidity;BMP_temperature;BMP_pressure;BME280_temperature;BME280_humidity;BME280_pressure;Samples;Min_cycle;Max_cycle;Signal;HPM_P1;HPM_P2
2022/06/25 00:01:11;;;;;;;0.00;0.00;;;23.90;74.70;;;;;;5080611;28;20119;-73
2022/06/25 00:03:38;;;;;;;0.00;0.00;;;23.90;74.90;;;;;;5084460;28;20068;-72
2022/06/25 00:06:05;;;;;;;0.00;0.00;;;24.00;75.00;;;;;;5083691;28;20028;-73
2022/06/25 00:08:32;;;;;;;0.00;0.00;;;24.00;75.00;;;;;;5082282;28;20302;-73
2022/06/25 00:10:58;;;;;;;0.00;0.00;;;24.00;75.20;;;;;;5083319;28;20093;-73
2022/06/25 00:13:23;;;;;;;0.00;0.00;;;24.10;75.50;;;;;;5085826;28;20028;-73
2022/06/25 00:15:49;;;;;;;0.00;0.00;;;24.10;75.10;;;;;;5078200;28;20029;-74
2022/06/25 00:18:15;;;;;;;0.00;0.00;;;24.10;75.30;;;;;;5081719;28;20019;-73
2022/06/25 00:20:42;;;;;;;0.00;0.00;;;24.10;75.70;;;;;;5078764;28;20024;-73
2022/06/25 00:23:08;;;;;;;0.00;0.00;;;24.00;75.20;;;;;;5083329;28;20452;-73
2022/06/25 00:25:34;;;;;;;0.00;0.00;;;23.90;75.70;;;;;;5079755;28;20020;-73
2022/06/25 00:28:00;;;;;;;0.00;0.00;;;23.80;76.30;;;;;;5078702;28;20397;-73
2022/06/25 00:30:26;;;;;;;0.00;0.00;;;23.80;77.00;;;;;;5085400;28;20292;-72
2022/06/25 00:32:51;;;;;;;0.00;0.00;;;23.80;77.60;;;;;;5077359;28;20030;-73
2022/06/25 00:35:17;;;;;;;0.00;0.00;;;23.80;77.90;;;;;;5086029;28;20087;-72
2022/06/25 00:37:43;;;;;;;0.00;0.00;;;23.80;78.00;;;;;;5082542;28;20024;-72
2022/06/25 00:40:10;;;;;;;0.00;0.00;;;23.60;78.60;;;;;;5077175;28;20346;-73
2022/06/25 00:42:36;;;;;;;0.00;0.00;;;23.60;79.20;;;;;;5080599;28;20043;-72
2022/06/25 00:45:02;;;;;;;0.00;0.00;;;23.40;79.90;;;;;;5077591;28;20420;-73
2022/06/25 00:47:28;;;;;;;0.00;0.00;;;23.40;80.70;;;;;;5077230;28;20397;-73
2022/06/25 00:49:54;;;;;;;0.00;0.00;;;23.20;81.30;;;;;;5076692;28;20032;-71
2022/06/25 00:52:22;;;;;;;0.00;0.00;;;23.20;81.90;;;;;;5078728;28;20374;-72
2022/06/25 00:54:51;;;;;;;0.00;0.00;;;23.10;82.20;;;;;;5079356;28;20024;-73
2022/06/25 00:57:24;;;;;;;0.00;0.00;;;23.20;82.50;;;;;;5084673;28;20428;-73
2022/06/25 00:59:50;;;;;;;0.00;0.00;;;23.10;82.70;;;;;;5078378;28;20016;-72
2022/06/25 01:02:17;;;;;;;0.00;0.00;;;23.00;83.30;;;;;;5070576;28;20099;-72
2022/06/25 01:04:43;;;;;;;0.00;0.00;;;22.90;84.60;;;;;;5059537;28;20021;-73
2022/06/25 01:07:09;;;;;;;0.00;0.00;;;22.80;84.50;;;;;;5059501;28;20344;-73
2022/06/25 01:09:37;;;;;;;0.00;0.00;;;22.80;84.90;;;;;;5058949;28;20044;-73
2022/06/25 01:12:03;;;;;;;0.00;0.00;;;22.60;82.70;;;;;;5058765;28;20045;-73
2022/06/25 01:14:29;;;;;;;0.00;0.00;;;22.50;82.30;;;;;;5061852;28;20092;-73
2022/06/25 01:16:55;;;;;;;0.00;0.00;;;22.40;82.60;;;;;;5058623;28;20362;-73
2022/06/25 01:19:21;;;;;;;0.00;0.00;;;22.30;82.80;;;;;;5060052;28;20385;-73
2022/06/25 01:21:46;;;;;;;0.00;0.00;;;22.20;82.90;;;;;;5064490;28;20024;-73
2022/06/25 01:24:13;;;;;;;0.00;0.00;;;22.20;82.80;;;;;;5057576;28;20077;-72
2022/06/25 01:26:40;;;;;;;0.00;0.00;;;22.20;82.90;;;;;;5060019;28;20041;-72
2022/06/25 01:29:06;;;;;;;0.00;0.00;;;22.20;83.40;;;;;;5064337;28;20084;-73
2022/06/25 01:31:32;;;;;;;0.00;0.00;;;22.10;83.60;;;;;;5059218;28;20031;-73
2022/06/25 01:33:59;;;;;;;0.00;0.00;;;22.10;84.00;;;;;;5058363;28;20037;-74
2022/06/25 01:36:25;;;;;;;0.00;0.00;;;22.00;84.30;;;;;;5058628;28;20047;-73
2022/06/25 01:38:51;;;;;;;0.00;0.00;;;22.20;85.30;;;;;;5058167;28;20032;-72
2022/06/25 01:41:17;;;;;;;0.00;0.00;;;21.90;85.50;;;;;;5061003;28;20094;-73
2022/06/25 01:43:43;;;;;;;0.00;0.00;;;21.80;86.30;;;;;;5044220;28;20021;-75
2022/06/25 01:46:09;;;;;;;0.00;0.00;;;21.70;85.30;;;;;;5062325;28;20084;-72
2022/06/25 01:48:35;;;;;;;0.00;0.00;;;21.50;85.90;;;;;;5056712;28;20035;-72
2022/06/25 01:51:01;;;;;;;0.00;0.00;;;21.40;86.70;;;;;;5042781;28;20077;-73
2022/06/25 01:53:27;;;;;;;0.00;0.00;;;21.20;86.80;;;;;;5062765;28;20055;-72
2022/06/25 01:55:53;;;;;;;0.00;0.00;;;21.10;87.80;;;;;;5041199;28;20070;-73
2022/06/25 01:58:19;;;;;;;0.00;0.00;;;21.00;87.80;;;;;;5053749;28;20041;-72
2022/06/25 02:00:45;;;;;;;0.00;0.00;;;20.90;88.20;;;;;;5056708;28;20024;-72
2022/06/25 02:03:11;;;;;;;0.00;0.00;;;20.90;87.80;;;;;;5057039;28;20353;-72
2022/06/25 02:08:21;;;;;;;0.00;0.00;;;20.80;88.00;;;;;;5063846;28;20085;-72
2022/06/25 02:10:47;;;;;;;0.00;0.00;;;20.60;88.70;;;;;;5041663;28;20017;-73
2022/06/25 02:13:14;;;;;;;0.00;0.00;;;20.60;89.40;;;;;;5056340;28;20351;-73
2022/06/25 02:15:40;;;;;;;0.00;0.00;;;20.50;89.30;;;;;;5056093;28;20013;-72
2022/06/25 02:18:06;;;;;;;0.00;0.00;;;20.40;90.00;;;;;;5055239;28;20032;-72
2022/06/25 02:20:31;;;;;;;0.00;0.00;;;20.40;90.10;;;;;;5059475;28;20040;-72
2022/06/25 02:22:57;;;;;;;0.00;0.00;;;20.40;90.20;;;;;;5055008;28;20020;-72
2022/06/25 02:25:23;;;;;;;0.00;0.00;;;20.40;89.80;;;;;;5055008;28;20342;-72
2022/06/25 02:27:49;;;;;;;0.00;0.00;;;20.30;89.80;;;;;;5061360;28;20025;-72
2022/06/25 02:30:14;;;;;;;0.00;0.00;;;20.30;90.10;;;;;;5056136;28;20043;-72
2022/06/25 02:32:40;;;;;;;0.00;0.00;;;20.30;90.10;;;;;;5056970;28;20380;-73
2022/06/25 02:35:06;;;;;;;0.00;0.00;;;20.20;90.40;;;;;;5058263;28;20093;-73
2022/06/25 02:37:32;;;;;;;0.00;0.00;;;20.20;90.30;;;;;;5062362;28;20052;-72
2022/06/25 02:39:57;;;;;;;0.00;0.00;;;20.20;90.20;;;;;;5055814;28;20009;-74
2022/06/25 02:42:23;;;;;;;0.00;0.00;;;20.20;90.20;;;;;;5042238;28;20092;-70
2022/06/25 02:44:49;;;;;;;0.00;0.00;;;20.20;90.40;;;;;;5040274;28;20055;-73
2022/06/25 02:47:14;;;;;;;0.00;0.00;;;20.20;90.30;;;;;;5062849;28;20036;-72
2022/06/25 02:49:41;;;;;;;0.00;0.00;;;20.20;89.80;;;;;;5058806;28;20017;-71
2022/06/25 02:52:07;;;;;;;0.00;0.00;;;20.20;89.60;;;;;;5043875;28;20298;-71
2022/06/25 02:54:32;;;;;;;0.00;0.00;;;20.20;90.00;;;;;;5066737;28;20021;-72
2022/06/25 02:59:42;;;;;;;0.00;0.00;;;20.30;89.50;;;;;;5047144;28;20032;-72
2022/06/25 03:02:08;;;;;;;0.00;0.00;;;20.30;89.20;;;;;;5064650;28;20044;-72
2022/06/25 03:04:34;;;;;;;0.00;0.00;;;20.20;89.00;;;;;;5042986;28;20101;-71
2022/06/25 03:07:00;;;;;;;0.00;0.00;;;20.10;89.50;;;;;;5050438;28;20021;-73
2022/06/25 03:09:26;;;;;;;0.00;0.00;;;18.60;88.20;;;;;;5042493;28;20079;-72
2022/06/25 03:11:51;;;;;;;0.00;0.00;;;20.10;88.60;;;;;;5040958;28;20025;-72
2022/06/25 03:14:17;;;;;;;0.00;0.00;;;20.10;89.10;;;;;;5061429;28;20032;-73
2022/06/25 03:16:43;;;;;;;0.00;0.00;;;20.10;89.40;;;;;;5063675;28;20082;-72
2022/06/25 03:19:09;;;;;;;0.00;0.00;;;20.10;89.10;;;;;;5048815;28;20092;-72
2022/06/25 03:21:35;;;;;;;0.00;0.00;;;20.10;89.30;;;;;;5043273;28;20028;-72
2022/06/25 03:24:01;;;;;;;0.00;0.00;;;20.00;88.80;;;;;;5049635;28;20105;-72
2022/06/25 03:26:27;;;;;;;0.00;0.00;;;20.10;89.10;;;;;;5048301;28;20039;-72
2022/06/25 03:28:53;;;;;;;0.00;0.00;;;20.00;89.40;;;;;;5040420;28;20029;-72
2022/06/25 03:31:21;;;;;;;0.00;0.00;;;20.00;89.60;;;;;;5062066;28;20052;-72
2022/06/25 03:33:46;;;;;;;0.00;0.00;;;20.00;90.10;;;;;;5060336;28;20400;-72
2022/06/25 03:36:12;;;;;;;0.00;0.00;;;20.00;90.40;;;;;;5064148;28;20041;-72
2022/06/25 03:38:38;;;;;;;0.00;0.00;;;20.00;90.50;;;;;;5060218;28;20036;-73
2022/06/25 03:43:49;;;;;;;0.00;0.00;;;19.90;90.60;;;;;;5066220;28;20134;-72
2022/06/25 03:46:15;;;;;;;0.00;0.00;;;19.90;91.00;;;;;;5058457;28;20036;-73
2022/06/25 03:48:40;;;;;;;0.00;0.00;;;19.80;90.50;;;;;;5048472;28;20027;-71
2022/06/25 03:51:06;;;;;;;0.00;0.00;;;19.80;90.70;;;;;;5058340;28;20044;-72
2022/06/25 03:53:32;;;;;;;0.00;0.00;;;19.80;90.80;;;;;;5059626;28;20070;-72
2022/06/25 03:55:59;;;;;;;0.00;0.00;;;19.80;90.70;;;;;;5058482;28;20021;-72
2022/06/25 03:58:24;;;;;;;0.00;0.00;;;19.80;91.20;;;;;;5058134;28;20071;-72
2022/06/25 04:00:50;;;;;;;0.00;0.00;;;19.80;91.30;;;;;;5061239;28;20596;-73
2022/06/25 04:03:16;;;;;;;0.00;0.00;;;19.70;91.50;;;;;;5057443;28;20045;-73
2022/06/25 04:05:41;;;;;;;0.00;0.00;;;19.70;91.80;;;;;;5058908;28;20033;-73
2022/06/25 04:08:07;;;;;;;0.00;0.00;;;19.70;92.30;;;;;;5057633;28;20078;-72
2022/06/25 04:10:33;;;;;;;0.00;0.00;;;19.60;92.90;;;;;;5065257;28;20084;-71
2022/06/25 04:12:58;;;;;;;0.00;0.00;;;19.60;93.40;;;;;;5061836;28;20292;-71
2022/06/25 04:15:24;;;;;;;0.00;0.00;;;19.50;93.40;;;;;;5058747;28;20135;-70
2022/06/25 04:17:50;;;;;;;0.00;0.00;;;19.40;93.80;;;;;;5058449;28;20031;-71
2022/06/25 04:20:15;;;;;;;0.00;0.00;;;19.30;94.10;;;;;;5059195;28;20021;-71
2022/06/25 04:22:41;;;;;;;0.00;0.00;;;19.20;94.50;;;;;;5063862;28;20032;-71
2022/06/25 04:25:07;;;;;;;0.00;0.00;;;19.10;94.70;;;;;;5062283;28;20312;-71
2022/06/25 04:30:17;;;;;;;0.00;0.00;;;19.00;95.30;;;;;;5058711;28;20042;-71
2022/06/25 04:32:43;;;;;;;0.00;0.00;;;19.00;95.40;;;;;;5061662;28;20332;-71
2022/06/25 04:35:08;;;;;;;0.00;0.00;;;19.00;95.80;;;;;;5060427;28;20012;-71
2022/06/25 04:37:34;;;;;;;0.00;0.00;;;18.90;96.00;;;;;;5061173;28;20083;-71
2022/06/25 04:40:00;;;;;;;0.00;0.00;;;18.90;96.20;;;;;;5057625;28;20020;-71
2022/06/25 04:42:25;;;;;;;0.00;0.00;;;18.90;96.50;;;;;;5058651;28;20031;-71
2022/06/25 04:44:51;;;;;;;0.00;0.00;;;18.90;96.50;;;;;;5060130;28;20463;-71
2022/06/25 04:47:16;;;;;;;0.00;0.00;;;18.90;96.60;;;;;;5042337;28;20039;-72
2022/06/25 04:49:42;;;;;;;0.00;0.00;;;18.80;96.90;;;;;;5061428;28;20370;-72
2022/06/25 04:52:08;;;;;;;0.00;0.00;;;18.80;96.90;;;;;;5041160;28;20074;-71
2022/06/25 04:54:33;;;;;;;0.00;0.00;;;18.80;96.80;;;;;;5043935;28;20025;-71
2022/06/25 04:56:59;;;;;;;0.00;0.00;;;18.80;96.90;;;;;;5059164;28;20025;-70
2022/06/25 04:59:25;;;;;;;0.00;0.00;;;18.80;97.20;;;;;;5058686;28;20359;-72
2022/06/25 05:01:51;;;;;;;0.00;0.00;;;18.70;97.30;;;;;;5058380;28;20060;-72
2022/06/25 05:04:17;;;;;;;0.00;0.00;;;18.80;97.40;;;;;;5040681;28;20123;-73
2022/06/25 05:06:44;;;;;;;0.00;0.00;;;18.80;97.60;;;;;;5042857;28;20312;-72
2022/06/25 05:09:09;;;;;;;0.00;0.00;;;18.80;97.60;;;;;;5044967;28;20020;-72
2022/06/25 05:11:35;;;;;;;0.00;0.00;;;18.80;97.30;;;;;;5057205;28;20021;-74
2022/06/25 05:14:01;;;;;;;0.00;0.00;;;18.80;97.80;;;;;;5061455;28;20062;-71
2022/06/25 05:16:27;;;;;;;0.00;0.00;;;18.80;97.80;;;;;;5056085;28;20024;-72
2022/06/25 05:18:52;;;;;;;0.00;0.00;;;18.80;97.60;;;;;;5058956;28;20039;-71
2022/06/25 05:21:18;;;;;;;0.00;0.00;;;18.80;97.70;;;;;;5043889;28;20031;-72
2022/06/25 05:23:45;;;;;;;0.00;0.00;;;18.80;97.90;;;;;;5059895;28;20101;-72
2022/06/25 05:26:10;;;;;;;0.00;0.00;;;18.80;97.80;;;;;;5057120;28;20772;-72
2022/06/25 05:28:36;;;;;;;0.00;0.00;;;18.80;97.80;;;;;;5056854;28;20029;-71
2022/06/25 05:31:02;;;;;;;0.00;0.00;;;18.80;97.90;;;;;;5038183;28;20032;-72
2022/06/25 05:33:28;;;;;;;0.00;0.00;;;18.80;98.00;;;;;;5038379;28;20047;-72
2022/06/25 05:35:54;;;;;;;0.00;0.00;;;18.80;98.00;;;;;;5046523;28;20021;-72
2022/06/25 05:38:19;;;;;;;0.00;0.00;;;18.80;98.20;;;;;;5057529;28;20031;-72
2022/06/25 05:40:45;;;;;;;0.00;0.00;;;18.80;98.20;;;;;;5059968;28;20076;-72
2022/06/25 05:43:11;;;;;;;0.00;0.00;;;18.80;98.20;;;;;;5057056;28;20718;-72
2022/06/25 05:45:37;;;;;;;0.00;0.00;;;18.80;98.10;;;;;;5041277;28;20051;-72
2022/06/25 05:48:03;;;;;;;0.00;0.00;;;18.80;98.30;;;;;;5044072;28;20067;-72
2022/06/25 05:50:29;;;;;;;0.00;0.00;;;18.80;98.40;;;;;;5044782;28;20257;-72
2022/06/25 05:52:55;;;;;;;0.00;0.00;;;18.80;98.80;;;;;;5049583;28;20016;-74
2022/06/25 05:55:22;;;;;;;0.00;0.00;;;18.80;98.70;;;;;;5040684;28;20423;-73
2022/06/25 05:57:48;;;;;;;0.00;0.00;;;18.80;98.80;;;;;;5068568;28;20025;-72
2022/06/25 06:00:14;;;;;;;0.00;0.00;;;18.80;98.70;;;;;;5058567;28;20334;-72
2022/06/25 06:02:40;;;;;;;0.00;0.00;;;18.80;98.90;;;;;;5060745;28;20040;-74
2022/06/25 06:05:06;;;;;;;0.00;0.00;;;18.80;99.00;;;;;;5058841;28;20181;-73
2022/06/25 06:07:31;;;;;;;0.00;0.00;;;18.80;99.00;;;;;;5063078;28;20062;-72
2022/06/25 06:09:57;;;;;;;0.00;0.00;;;18.80;99.10;;;;;;5056695;28;20096;-71
2022/06/25 06:12:23;;;;;;;0.00;0.00;;;18.90;99.20;;;;;;5055836;28;20052;-73
2022/06/25 06:14:48;;;;;;;0.00;0.00;;;18.90;99.40;;;;;;5038581;28;20075;-71
2022/06/25 06:17:14;;;;;;;0.00;0.00;;;18.90;98.90;;;;;;5060471;28;20025;-71
2022/06/25 06:19:40;;;;;;;0.00;0.00;;;18.80;98.90;;;;;;5058290;28;20040;-71
2022/06/25 06:22:05;;;;;;;0.00;0.00;;;18.80;98.90;;;;;;5058084;28;20183;-70
2022/06/25 06:24:31;;;;;;;0.00;0.00;;;18.80;99.00;;;;;;5042571;28;20020;-72
2022/06/25 06:26:57;;;;;;;0.00;0.00;;;18.90;99.10;;;;;;5061145;28;20033;-71
2022/06/25 06:29:22;;;;;;;0.00;0.00;;;18.90;99.10;;;;;;5056755;28;20025;-73
2022/06/25 06:31:48;;;;;;;0.00;0.00;;;19.00;99.10;;;;;;5061957;28;20332;-72
2022/06/25 06:34:14;;;;;;;0.00;0.00;;;18.90;99.10;;;;;;5058209;28;20097;-71
2022/06/25 06:36:39;;;;;;;0.00;0.00;;;18.90;99.30;;;;;;5057960;28;20091;-71
2022/06/25 06:39:05;;;;;;;0.00;0.00;;;18.90;99.20;;;;;;5060205;28;20091;-71
2022/06/25 06:41:31;;;;;;;0.00;0.00;;;18.90;99.40;;;;;;5058447;28;20098;-71
2022/06/25 06:43:56;;;;;;;0.00;0.00;;;19.00;99.60;;;;;;5041838;28;20017;-70
2022/06/25 06:46:22;;;;;;;0.00;0.00;;;19.00;99.50;;;;;;5042014;28;20039;-71
2022/06/25 06:48:48;;;;;;;0.00;0.00;;;19.00;99.40;;;;;;5060757;28;20299;-72
2022/06/25 06:51:13;;;;;;;0.00;0.00;;;19.00;99.50;;;;;;5058458;28;20056;-73
2022/06/25 06:53:39;;;;;;;0.00;0.00;;;19.10;99.50;;;;;;5061494;28;20045;-71
2022/06/25 06:56:05;;;;;;;0.00;0.00;;;19.10;99.10;;;;;;5054856;28;20098;-71
2022/06/25 06:58:30;;;;;;;0.00;0.00;;;19.20;99.20;;;;;;5042907;28;20210;-72
2022/06/25 07:00:57;;;;;;;0.00;0.00;;;19.30;99.30;;;;;;5055941;28;20029;-72
2022/06/25 07:03:23;;;;;;;0.00;0.00;;;19.30;99.10;;;;;;5056231;28;20132;-72
2022/06/25 07:05:48;;;;;;;0.00;0.00;;;19.40;98.90;;;;;;5037474;28;20021;-71
2022/06/25 07:08:14;;;;;;;0.00;0.00;;;19.40;98.80;;;;;;5040809;28;20032;-72
2022/06/25 07:10:40;;;;;;;0.00;0.00;;;19.50;98.80;;;;;;5057137;28;20021;-72
2022/06/25 07:13:05;;;;;;;0.00;0.00;;;19.60;98.60;;;;;;5058921;28;20140;-72
2022/06/25 07:15:31;;;;;;;0.00;0.00;;;19.60;98.50;;;;;;5055535;28;20052;-72
2022/06/25 07:17:56;;;;;;;0.00;0.00;;;19.70;98.60;;;;;;5055465;28;20095;-73
2022/06/25 07:20:22;;;;;;;0.00;0.00;;;19.80;98.60;;;;;;5056882;28;20051;-72
2022/06/25 07:22:48;;;;;;;0.00;0.00;;;19.90;98.10;;;;;;5055450;28;20193;-73
2022/06/25 07:25:13;;;;;;;0.00;0.00;;;19.90;98.10;;;;;;5058289;28;20106;-69
2022/06/25 07:27:42;;;;;;;0.00;0.00;;;19.90;98.00;;;;;;5058761;28;20094;-70
2022/06/25 07:30:08;;;;;;;0.00;0.00;;;20.10;98.30;;;;;;5058000;28;20080;-69
2022/06/25 07:32:34;;;;;;;0.00;0.00;;;20.40;97.70;;;;;;5055165;28;20021;-69
2022/06/25 07:35:00;;;;;;;0.00;0.00;;;20.50;97.30;;;;;;5055387;28;20308;-69
2022/06/25 07:37:25;;;;;;;0.00;0.00;;;20.60;97.10;;;;;;5039690;28;20029;-69
2022/06/25 07:39:51;;;;;;;0.00;0.00;;;20.70;96.90;;;;;;5040724;28;20051;-72
2022/06/25 07:42:17;;;;;;;0.00;0.00;;;20.80;96.40;;;;;;5068044;28;20037;-73
2022/06/25 07:44:42;;;;;;;0.00;0.00;;;20.80;96.30;;;;;;5041329;28;20036;-71
2022/06/25 07:47:08;;;;;;;0.00;0.00;;;20.80;96.30;;;;;;5062149;28;20182;-74
2022/06/25 07:51:56;;;;;;;0.00;0.00;;;20.80;96.50;;;;;;5063659;28;20033;-74
2022/06/25 07:52:19;;;;;;;0.00;0.00;;;20.70;96.40;;;;;;5058375;28;20192;-74
2022/06/25 07:54:45;;;;;;;0.00;0.00;;;20.70;96.30;;;;;;5065287;28;20016;-74
2022/06/25 07:57:10;;;;;;;0.00;0.00;;;20.70;96.70;;;;;;5047347;28;20036;-74
2022/06/25 07:59:36;;;;;;;0.00;0.00;;;20.70;96.30;;;;;;5071184;28;20021;-73
2022/06/25 08:02:02;;;;;;;0.00;0.00;;;20.70;96.40;;;;;;5054769;28;20331;-73
2022/06/25 08:04:27;;;;;;;0.00;0.00;;;20.60;95.90;;;;;;5083348;28;20695;-74
2022/06/25 08:06:55;;;;;;;0.00;0.00;;;20.60;96.20;;;;;;5093300;28;20031;-74
2022/06/25 08:09:20;;;;;;;0.00;0.00;;;20.60;96.10;;;;;;5078253;28;20028;-74
2022/06/25 08:11:46;;;;;;;0.00;0.00;;;20.60;96.00;;;;;;5080124;28;20426;-76
2022/06/25 08:14:12;;;;;;;0.00;0.00;;;20.60;95.60;;;;;;5076177;28;20020;-75
2022/06/25 08:16:38;;;;;;;0.00;0.00;;;20.50;95.90;;;;;;5079359;28;20028;-74
2022/06/25 08:19:04;;;;;;;0.00;0.00;;;20.40;96.50;;;;;;5079883;28;20115;-74
2022/06/25 08:21:29;;;;;;;0.00;0.00;;;20.40;96.60;;;;;;5078914;28;20032;-74
2022/06/25 08:23:55;;;;;;;0.00;0.00;;;20.40;96.80;;;;;;5077617;28;20024;-72
2022/06/25 08:26:22;;;;;;;0.00;0.00;;;20.30;96.60;;;;;;5080546;28;20032;-74
2022/06/25 08:28:47;;;;;;;0.00;0.00;;;20.30;96.90;;;;;;5081931;28;20046;-74
2022/06/25 08:31:13;;;;;;;0.00;0.00;;;20.30;96.80;;;;;;5082042;28;20298;-74
2022/06/25 08:33:39;;;;;;;0.00;0.00;;;20.30;96.90;;;;;;5078801;28;20185;-73
2022/06/25 08:36:05;;;;;;;0.00;0.00;;;20.30;96.90;;;;;;5077222;28;20048;-74
2022/06/25 08:38:31;;;;;;;0.00;0.00;;;20.20;96.90;;;;;;5077133;28;20028;-73
2022/06/25 08:40:59;;;;;;;0.00;0.00;;;20.20;96.90;;;;;;5076230;28;20035;-73
2022/06/25 08:43:25;;;;;;;0.00;0.00;;;20.20;96.90;;;;;;5079168;28;20031;-74
2022/06/25 08:45:52;;;;;;;0.00;0.00;;;20.20;96.90;;;;;;5078027;28;20032;-72
2022/06/25 08:48:22;;;;;;;0.00;0.00;;;20.20;97.00;;;;;;5078171;28;20042;-73
2022/06/25 08:50:49;;;;;;;0.00;0.00;;;20.10;97.00;;;;;;5079754;28;20032;-71
2022/06/25 08:53:16;;;;;;;0.00;0.00;;;20.10;97.30;;;;;;5084933;28;20058;-73
2022/06/25 08:55:44;;;;;;;0.00;0.00;;;20.10;97.50;;;;;;5079451;28;20124;-74
2022/06/25 08:58:11;;;;;;;0.00;0.00;;;20.10;97.30;;;;;;5081099;28;20028;-74
2022/06/25 09:00:40;;;;;;;0.00;0.00;;;20.20;97.20;;;;;;5077622;28;20308;-73
2022/06/25 09:03:07;;;;;;;0.00;0.00;;;20.20;97.30;;;;;;5063775;28;20072;-72
2022/06/25 09:05:36;;;;;;;0.00;0.00;;;20.20;97.20;;;;;;5058202;28;20037;-72
2022/06/25 09:08:05;;;;;;;0.00;0.00;;;20.30;97.20;;;;;;5065805;28;20024;-74
2022/06/25 09:10:31;;;;;;;0.00;0.00;;;20.30;96.90;;;;;;5048588;28;20096;-74
2022/06/25 09:13:02;;;;;;;0.00;0.00;;;20.40;96.90;;;;;;5064047;28;20012;-72
2022/06/25 09:15:33;;;;;;;0.00;0.00;;;20.40;96.70;;;;;;5058390;28;20044;-75
2022/06/25 09:18:09;;;;;;;0.00;0.00;;;20.40;96.80;;;;;;5043195;28;20033;-73
2022/06/25 09:20:36;;;;;;;0.00;0.00;;;20.40;96.80;;;;;;5042747;28;20152;-74
2022/06/25 09:23:05;;;;;;;0.00;0.00;;;20.40;96.20;;;;;;5048212;28;20028;-74
2022/06/25 09:25:33;;;;;;;0.00;0.00;;;20.50;96.10;;;;;;5029056;28;20352;-74
2022/06/25 09:27:59;;;;;;;0.00;0.00;;;20.40;95.90;;;;;;5063470;28;20040;-75
2022/06/25 09:30:26;;;;;;;0.00;0.00;;;20.50;96.10;;;;;;5061845;28;20155;-74
2022/06/25 09:32:56;;;;;;;0.00;0.00;;;20.60;96.20;;;;;;5046318;28;20028;-73
2022/06/25 09:35:39;;;;;;;0.00;0.00;;;20.60;96.00;;;;;;5056250;28;20013;-73
2022/06/25 09:38:14;;;;;;;0.00;0.00;;;20.70;95.90;;;;;;5055151;28;20264;-73
2022/06/25 09:40:47;;;;;;;0.00;0.00;;;20.80;95.20;;;;;;5055440;28;20031;-71
2022/06/25 09:43:19;;;;;;;0.00;0.00;;;20.90;95.50;;;;;;5057820;28;20313;-71
2022/06/25 09:45:47;;;;;;;0.00;0.00;;;21.30;95.10;;;;;;5055958;28;20160;-71
2022/06/25 09:48:18;;;;;;;0.00;0.00;;;21.20;94.50;;;;;;5058712;28;20086;-71
2022/06/25 09:51:03;;;;;;;0.00;0.00;;;21.60;94.10;;;;;;5056062;28;20541;-71
2022/06/25 09:53:28;;;;;;;0.00;0.00;;;21.50;93.70;;;;;;5039763;28;20044;-70
2022/06/25 09:55:54;;;;;;;0.00;0.00;;;21.50;93.50;;;;;;5051057;28;20212;-71
2022/06/25 09:58:21;;;;;;;0.00;0.00;;;21.50;93.30;;;;;;5055618;28;20330;-71
2022/06/25 10:00:47;;;;;;;0.00;0.00;;;21.60;93.10;;;;;;5060031;28;20288;-69
2022/06/25 10:03:13;;;;;;;0.00;0.00;;;21.60;93.00;;;;;;5059478;28;20044;-69
2022/06/25 10:05:41;;;;;;;0.00;0.00;;;21.60;92.90;;;;;;5037777;28;20032;-70
2022/06/25 10:08:12;;;;;;;0.00;0.00;;;21.70;93.00;;;;;;5063291;28;20299;-70
2022/06/25 10:10:40;;;;;;;0.00;0.00;;;21.70;93.10;;;;;;5038476;28;20025;-70
2022/06/25 10:13:06;;;;;;;;;;;21.70;93.00;;;;;;5062410;28;20063;-70
2022/06/25 10:15:33;;;;;;;0.00;0.00;;;21.80;92.90;;;;;;5056281;28;19901;-71
2022/06/25 10:18:04;;;;;;;0.00;0.00;;;21.80;92.70;;;;;;5061479;28;20043;-71
2022/06/25 10:20:31;;;;;;;0.00;0.00;;;21.70;92.70;;;;;;5046070;28;20044;-71
2022/06/25 10:22:59;;;;;;;0.00;0.00;;;21.60;92.60;;;;;;5047866;28;20040;-72
2022/06/25 10:25:26;;;;;;;0.00;0.00;;;21.60;92.60;;;;;;5066214;28;20028;-71
2022/06/25 10:28:05;;;;;;;0.00;0.00;;;21.60;92.60;;;;;;5057191;28;20247;-71
2022/06/25 10:30:57;;;;;;;0.00;0.00;;;21.50;92.80;;;;;;5064614;28;20035;-71
2022/06/25 10:33:25;;;;;;;0.00;0.00;;;21.50;92.90;;;;;;5054020;28;20071;-71
2022/06/25 10:35:55;;;;;;;0.00;0.00;;;21.50;92.80;;;;;;5058911;28;20036;-71
2022/06/25 10:38:22;;;;;;;0.00;0.00;;;21.60;92.90;;;;;;5055432;28;20441;-71
2022/06/25 10:42:58;;;;;;;0.00;0.00;;;21.60;92.90;;;;;;5041802;28;20080;-71
2022/06/25 10:43:54;;;;;;;0.00;0.00;;;21.60;92.90;;;;;;5057266;28;20029;-72
2022/06/25 10:46:28;;;;;;;0.00;0.00;;;21.50;92.40;;;;;;5060371;28;20101;-71
2022/06/25 10:49:02;;;;;;;0.00;0.00;;;21.50;92.40;;;;;;5056885;28;20099;-71
2022/06/25 10:51:31;;;;;;;0.00;0.00;;;21.30;92.80;;;;;;5059564;28;20025;-71
2022/06/25 10:53:58;;;;;;;0.00;0.00;;;21.30;92.80;;;;;;5058858;28;20020;-71
2022/06/25 10:56:24;;;;;;;0.00;0.00;;;21.30;92.90;;;;;;5041661;28;20078;-70
2022/06/25 10:58:51;;;;;;;0.00;0.00;;;21.30;92.60;;;;;;5060497;28;20294;-70
2022/06/25 11:01:27;;;;;;;0.00;0.00;;;21.40;92.90;;;;;;5039090;28;20067;-69
2022/06/25 11:03:54;;;;;;;0.00;0.00;;;21.50;92.80;;;;;;5036078;28;20070;-70
2022/06/25 11:06:32;;;;;;;0.00;0.00;;;21.60;92.30;;;;;;5055778;28;20093;-70
2022/06/25 11:09:10;;;;;;;0.00;0.00;;;21.70;92.00;;;;;;5057039;28;20385;-70
2022/06/25 11:11:36;;;;;;;0.00;0.00;;;21.90;91.90;;;;;;5037956;28;20052;-70
2022/06/25 11:14:12;;;;;;;0.00;0.00;;;22.00;91.60;;;;;;5058119;28;20044;-71
2022/06/25 11:16:38;;;;;;;0.00;0.00;;;22.10;91.40;;;;;;5059998;28;20352;-71
2022/06/25 11:19:03;;;;;;;0.00;0.00;;;22.30;91.20;;;;;;5060435;28;20025;-71
2022/06/25 11:21:38;;;;;;;0.00;0.00;;;22.40;90.90;;;;;;5057217;28;20036;-70
2022/06/25 11:24:23;;;;;;;0.00;0.00;;;22.60;90.60;;;;;;5061332;28;20017;-72
2022/06/25 11:29:52;;;;;;;0.00;0.00;;;23.10;89.60;;;;;;5059674;28;20035;-72
2022/06/25 11:32:26;;;;;;;0.00;0.00;;;23.30;88.50;;;;;;5061046;28;20024;-72
2022/06/25 11:34:58;;;;;;;0.00;0.00;;;23.50;87.70;;;;;;5044942;28;20040;-72
2022/06/25 11:37:24;;;;;;;0.00;0.00;;;23.80;87.10;;;;;;5056999;28;20028;-70
2022/06/25 11:39:51;;;;;;;0.00;0.00;;;24.20;86.40;;;;;;5060861;28;20326;-70
2022/06/25 11:42:17;;;;;;;0.00;0.00;;;24.60;84.30;;;;;;5062765;28;20335;-73
2022/06/25 11:44:45;;;;;;;0.00;0.00;;;25.00;82.50;;;;;;5063030;28;20283;-72
2022/06/25 11:47:30;;;;;;;0.00;0.00;;;25.30;82.40;;;;;;5049769;28;20029;-73
2022/06/25 11:49:56;;;;;;;0.00;0.00;;;25.70;78.60;;;;;;5068117;28;20032;-72
2022/06/25 11:52:24;;;;;;;0.00;0.00;;;25.70;78.10;;;;;;5066527;28;20197;-72
2022/06/25 11:54:51;;;;;;;0.00;0.00;;;25.80;78.00;;;;;;5069217;28;20094;-70
2022/06/25 11:57:25;;;;;;;0.00;0.00;;;25.70;76.90;;;;;;5068693;28;20037;-70
2022/06/25 11:59:52;;;;;;;0.00;0.00;;;25.60;76.80;;;;;;5067035;28;20276;-70
2022/06/25 12:02:20;;;;;;;0.00;0.00;;;25.40;76.50;;;;;;5060649;28;20047;-70
2022/06/25 12:04:56;;;;;;;0.00;0.00;;;25.20;77.50;;;;;;5068221;28;20036;-71
2022/06/25 12:07:29;;;;;;;0.00;0.00;;;25.10;77.90;;;;;;5064543;28;20027;-72
2022/06/25 12:10:03;;;;;;;0.00;0.00;;;25.00;77.80;;;;;;5066628;28;20029;-70
2022/06/25 12:12:29;;;;;;;0.00;0.00;;;25.00;78.80;;;;;;5066823;28;20032;-70
2022/06/25 12:14:59;;;;;;;0.00;0.00;;;25.00;79.50;;;;;;5069743;28;20017;-71
2022/06/25 12:17:32;;;;;;;0.00;0.00;;;24.90;79.00;;;;;;5068057;28;20020;-70
2022/06/25 12:20:04;;;;;;;0.00;0.00;;;24.90;79.90;;;;;;5069000;28;20035;-71
2022/06/25 12:22:30;;;;;;;0.00;0.00;;;25.00;79.20;;;;;;5068438;28;20021;-70
2022/06/25 12:25:00;;;;;;;0.00;0.00;;;25.00;78.30;;;;;;5071439;28;20320;-71
2022/06/25 12:27:26;;;;;;;0.00;0.00;;;25.10;79.10;;;;;;5066625;28;20020;-71
2022/06/25 12:29:55;;;;;;;0.00;0.00;;;25.20;79.00;;;;;;5052187;28;20311;-71
2022/06/25 12:32:36;;;;;;;0.00;0.00;;;25.30;78.40;;;;;;5049086;28;20048;-71
2022/06/25 12:35:02;;;;;;;0.00;0.00;;;25.10;77.70;;;;;;5058329;28;20697;-70
2022/06/25 12:37:31;;;;;;;0.00;0.00;;;25.10;77.90;;;;;;5040796;28;20127;-70
2022/06/25 12:39:58;;;;;;;0.00;0.00;;;24.70;78.90;;;;;;5062698;28;20116;-70
2022/06/25 12:42:24;;;;;;;0.00;0.00;;;24.50;79.50;;;;;;5042448;28;20025;-72
2022/06/25 12:44:52;;;;;;;0.00;0.00;;;24.40;80.60;;;;;;5044580;28;20199;-72
2022/06/25 12:47:18;;;;;;;0.00;0.00;;;24.30;80.80;;;;;;5064212;28;20021;-73
2022/06/25 12:49:47;;;;;;;0.00;0.00;;;24.30;81.30;;;;;;5042609;28;20103;-73
2022/06/25 12:52:36;;;;;;;0.00;0.00;;;24.30;81.00;;;;;;5039714;28;20071;-71
2022/06/25 12:55:03;;;;;;;0.00;0.00;;;24.30;81.40;;;;;;5057179;28;20028;-71
2022/06/25 12:57:36;;;;;;;0.00;0.00;;;24.40;81.10;;;;;;5063222;28;20074;-72
2022/06/25 13:00:23;;;;;;;0.00;0.00;;;24.40;81.00;;;;;;5063774;28;20256;-71
2022/06/25 13:02:49;;;;;;;;;;;24.40;81.20;;;;;;5063345;28;20094;-72